createdAt,value
2017-11-08T00:00:31.463Z,0
2017-11-08T00:01:31.683Z,0
2017-11-08T00:02:31.684Z,0
2017-11-08T00:03:31.330Z,0
2017-11-08T00:04:31.302Z,0
2017-11-08T00:05:31.284Z,0
2017-11-08T00:06:31.271Z,0
2017-11-08T00:07:31.597Z,0
2017-11-08T00:08:31.583Z,0
2017-11-08T00:09:31.229Z,0
2017-11-08T00:10:31.214Z,0
2017-11-08T00:11:31.200Z,0
2017-11-08T00:12:31.527Z,0
2017-11-08T00:13:31.173Z,0
2017-11-08T00:14:31.158Z,0
2017-11-08T00:15:31.143Z,0
2017-11-08T00:16:31.129Z,0
2017-11-08T00:17:31.120Z,0
2017-11-08T00:18:31.445Z,0
2017-11-08T00:19:31.427Z,0
2017-11-08T00:20:31.422Z,0
2017-11-08T00:21:31.060Z,0
2017-11-08T00:22:31.045Z,0
2017-11-08T00:23:31.369Z,0
2017-11-08T00:24:31.036Z,0
2017-11-08T00:25:31.378Z,0
2017-11-08T00:26:31.345Z,0
2017-11-08T00:27:31.315Z,0
2017-11-08T00:28:30.964Z,0
2017-11-08T00:29:30.948Z,0
2017-11-08T00:30:31.002Z,0
2017-11-08T00:31:30.919Z,0
2017-11-08T00:32:30.920Z,0
2017-11-08T00:33:31.233Z,0
2017-11-08T00:34:30.892Z,0
2017-11-08T00:35:30.864Z,0
2017-11-08T00:36:30.850Z,0
2017-11-08T00:37:30.857Z,0
2017-11-08T00:38:30.823Z,0
2017-11-08T00:39:30.807Z,0
2017-11-08T00:40:31.131Z,0
2017-11-08T00:41:30.779Z,0
2017-11-08T00:42:31.129Z,0
2017-11-08T00:43:30.774Z,0
2017-11-08T00:44:30.740Z,0
2017-11-08T00:45:30.722Z,0
2017-11-08T00:46:31.065Z,0
2017-11-08T00:47:30.693Z,0
2017-11-08T00:48:30.680Z,0
2017-11-08T00:49:30.664Z,0
2017-11-08T00:50:30.651Z,0
2017-11-08T00:51:30.980Z,0
2017-11-08T00:52:30.623Z,0
2017-11-08T00:53:30.610Z,0
2017-11-08T00:54:30.593Z,0
2017-11-08T00:55:30.926Z,0
2017-11-08T00:56:30.912Z,0
2017-11-08T00:57:30.554Z,0
2017-11-08T00:58:30.878Z,0
2017-11-08T00:59:30.884Z,0
2017-11-08T01:00:30.511Z,0
2017-11-08T01:01:30.840Z,0
2017-11-08T01:02:30.482Z,0
2017-11-08T01:03:30.469Z,0
2017-11-08T01:04:30.454Z,0
2017-11-08T01:05:30.449Z,0
2017-11-08T01:06:30.769Z,0
2017-11-08T01:07:30.411Z,0
2017-11-08T01:08:30.398Z,0
2017-11-08T01:09:30.723Z,0
2017-11-08T01:10:30.371Z,0
2017-11-08T01:11:30.355Z,0
2017-11-08T01:12:30.340Z,0
2017-11-08T01:13:30.331Z,0
2017-11-08T01:14:30.314Z,0
2017-11-08T01:15:30.298Z,0
2017-11-08T01:16:30.284Z,0
2017-11-08T01:17:30.270Z,0
2017-11-08T01:18:30.254Z,0
2017-11-08T01:19:30.252Z,0
2017-11-08T01:20:30.566Z,0
2017-11-08T01:21:30.214Z,0
2017-11-08T01:22:30.208Z,0
2017-11-08T01:23:30.526Z,0
2017-11-08T01:24:30.171Z,0
2017-11-08T01:25:30.154Z,0
2017-11-08T01:26:30.142Z,0
2017-11-08T01:27:30.126Z,0
2017-11-08T01:28:30.114Z,0
2017-11-08T01:29:30.101Z,0
2017-11-08T01:30:30.424Z,0
2017-11-08T01:31:30.073Z,0
2017-11-08T01:32:30.082Z,0
2017-11-08T01:33:30.395Z,0
2017-11-08T01:34:30.030Z,0
2017-11-08T01:35:30.015Z,0
2017-11-08T01:36:30.000Z,0
2017-11-08T01:37:29.990Z,0
2017-11-08T01:38:30.317Z,0
2017-11-08T01:39:29.964Z,0
2017-11-08T01:40:29.947Z,0
2017-11-08T01:41:29.933Z,0
2017-11-08T01:42:29.914Z,0
2017-11-08T01:43:29.901Z,0
2017-11-08T01:44:29.892Z,0
2017-11-08T01:45:29.893Z,0
2017-11-08T01:46:29.858Z,0
2017-11-08T01:47:29.842Z,0
2017-11-08T01:48:30.183Z,0
2017-11-08T01:49:29.814Z,0
2017-11-08T01:50:30.159Z,0
2017-11-08T01:51:29.787Z,0
2017-11-08T01:52:29.781Z,0
2017-11-08T01:53:30.096Z,0
2017-11-08T01:54:29.743Z,0
2017-11-08T01:55:30.081Z,0
2017-11-08T01:56:29.713Z,0
2017-11-08T01:57:29.698Z,0
2017-11-08T01:58:29.686Z,0
2017-11-08T01:59:29.673Z,0
2017-11-08T02:00:29.657Z,0
2017-11-08T02:01:29.645Z,0
2017-11-08T02:02:29.965Z,0
2017-11-08T02:03:29.616Z,0
2017-11-08T02:04:29.599Z,0
2017-11-08T02:05:29.585Z,0
2017-11-08T02:06:29.571Z,0
2017-11-08T02:07:29.901Z,0
2017-11-08T02:08:29.542Z,0
2017-11-08T02:09:29.529Z,0
2017-11-08T02:10:29.856Z,0
2017-11-08T02:11:29.504Z,0
2017-11-08T02:12:29.486Z,0
2017-11-08T02:13:29.472Z,0
2017-11-08T02:14:29.458Z,0
2017-11-08T02:15:29.443Z,0
2017-11-08T02:16:29.769Z,0
2017-11-08T02:17:29.413Z,0
2017-11-08T02:18:29.398Z,0
2017-11-08T02:19:29.386Z,0
2017-11-08T02:20:29.725Z,0
2017-11-08T02:21:29.358Z,0
2017-11-08T02:22:29.681Z,0
2017-11-08T02:23:29.329Z,0
2017-11-08T02:24:29.313Z,0
2017-11-08T02:25:29.661Z,0
2017-11-08T02:26:29.290Z,0
2017-11-08T02:27:29.271Z,0
2017-11-08T02:28:29.596Z,0
2017-11-08T02:29:29.244Z,0
2017-11-08T02:30:29.230Z,0
2017-11-08T02:31:29.558Z,0
2017-11-08T02:32:29.202Z,0
2017-11-08T02:33:29.198Z,0
2017-11-08T02:34:29.173Z,0
2017-11-08T02:35:29.504Z,0
2017-11-08T02:36:29.496Z,0
2017-11-08T02:37:29.132Z,0
2017-11-08T02:38:29.115Z,0
2017-11-08T02:39:29.440Z,0
2017-11-08T02:40:29.089Z,0
2017-11-08T02:41:29.074Z,0
2017-11-08T02:42:29.059Z,0
2017-11-08T02:43:29.045Z,0
2017-11-08T02:44:29.032Z,0
2017-11-08T02:45:29.018Z,0
2017-11-08T02:46:29.004Z,0
2017-11-08T02:47:28.988Z,0
2017-11-08T02:48:29.311Z,0
2017-11-08T02:49:28.960Z,0
2017-11-08T02:50:28.960Z,0
2017-11-08T02:51:29.273Z,0
2017-11-08T02:52:29.278Z,0
2017-11-08T02:53:28.902Z,0
2017-11-08T02:54:29.249Z,0
2017-11-08T02:55:28.891Z,0
2017-11-08T02:56:28.861Z,0
2017-11-08T02:57:29.197Z,0
2017-11-08T02:58:29.177Z,0
2017-11-08T02:59:28.816Z,0
2017-11-08T03:00:28.806Z,0
2017-11-08T03:01:28.791Z,0
2017-11-08T03:02:28.788Z,0
2017-11-08T03:03:28.760Z,0
2017-11-08T03:04:28.750Z,0
2017-11-08T03:05:28.731Z,0
2017-11-08T03:06:28.719Z,0
2017-11-08T03:07:29.053Z,0
2017-11-08T03:08:28.693Z,0
2017-11-08T03:09:28.674Z,0
2017-11-08T03:10:28.999Z,0
2017-11-08T03:11:28.667Z,0
2017-11-08T03:12:28.634Z,0
2017-11-08T03:13:28.960Z,0
2017-11-08T03:14:28.960Z,0
2017-11-08T03:15:28.590Z,0
2017-11-08T03:16:28.577Z,0
2017-11-08T03:17:28.901Z,0
2017-11-08T03:18:28.889Z,0
2017-11-08T03:19:28.535Z,0
2017-11-08T03:20:28.521Z,0
2017-11-08T03:21:28.843Z,0
2017-11-08T03:22:28.831Z,0
2017-11-08T03:23:28.821Z,0
2017-11-08T03:24:28.463Z,0
2017-11-08T03:25:28.449Z,0
2017-11-08T03:26:28.439Z,0
2017-11-08T03:27:28.777Z,0
2017-11-08T03:28:28.407Z,0
2017-11-08T03:29:28.410Z,0
2017-11-08T03:30:28.383Z,0
2017-11-08T03:31:28.386Z,0
2017-11-08T03:32:28.691Z,0
2017-11-08T03:33:28.338Z,0
2017-11-08T03:34:28.678Z,0
2017-11-08T03:35:28.310Z,0
2017-11-08T03:36:28.304Z,0
2017-11-08T03:37:28.620Z,0
2017-11-08T03:38:28.267Z,0
2017-11-08T03:39:28.252Z,0
2017-11-08T03:40:28.236Z,0
2017-11-08T03:41:28.245Z,0
2017-11-08T03:42:28.556Z,0
2017-11-08T03:43:28.195Z,0
2017-11-08T03:44:28.521Z,0
2017-11-08T03:45:28.174Z,0
2017-11-08T03:46:28.162Z,0
2017-11-08T03:47:28.146Z,0
2017-11-08T03:48:28.126Z,0
2017-11-08T03:49:28.123Z,0
2017-11-08T03:50:28.095Z,0
2017-11-08T03:51:28.083Z,0
2017-11-08T03:52:28.067Z,0
2017-11-08T03:53:28.393Z,0
2017-11-08T03:54:28.040Z,0
2017-11-08T03:55:28.025Z,0
2017-11-08T03:56:28.349Z,0
2017-11-08T03:57:28.335Z,0
2017-11-08T03:58:27.983Z,0
2017-11-08T03:59:27.968Z,0
2017-11-08T04:00:27.955Z,0
2017-11-08T04:01:27.958Z,0
2017-11-08T04:02:27.928Z,0
2017-11-08T04:03:27.911Z,0
2017-11-08T04:04:28.235Z,0
2017-11-08T04:05:27.884Z,0
2017-11-08T04:06:27.869Z,0
2017-11-08T04:07:27.854Z,0
2017-11-08T04:08:28.193Z,0
2017-11-08T04:09:27.829Z,0
2017-11-08T04:10:27.815Z,0
2017-11-08T04:11:27.799Z,0
2017-11-08T04:12:27.785Z,0
2017-11-08T04:13:27.772Z,0
2017-11-08T04:14:27.759Z,0
2017-11-08T04:15:27.743Z,0
2017-11-08T04:16:28.067Z,0
2017-11-08T04:17:28.054Z,0
2017-11-08T04:18:27.710Z,0
2017-11-08T04:19:27.688Z,0
2017-11-08T04:20:28.020Z,0
2017-11-08T04:21:27.995Z,0
2017-11-08T04:22:27.644Z,0
2017-11-08T04:23:27.628Z,0
2017-11-08T04:24:27.613Z,0
2017-11-08T04:25:27.960Z,0
2017-11-08T04:26:27.585Z,0
2017-11-08T04:27:27.591Z,0
2017-11-08T04:28:27.909Z,0
2017-11-08T04:29:27.556Z,0
2017-11-08T04:30:27.534Z,0
2017-11-08T04:31:27.859Z,0
2017-11-08T04:32:27.531Z,0
2017-11-08T04:33:27.489Z,0
2017-11-08T04:34:27.475Z,0
2017-11-08T04:35:27.459Z,0
2017-11-08T04:36:27.786Z,0
2017-11-08T04:37:27.432Z,0
2017-11-08T04:38:27.416Z,0
2017-11-08T04:39:27.405Z,0
2017-11-08T04:40:27.407Z,0
2017-11-08T04:41:27.722Z,0
2017-11-08T04:42:27.369Z,0
2017-11-08T04:43:27.685Z,0
2017-11-08T04:44:27.333Z,0
2017-11-08T04:45:27.321Z,0
2017-11-08T04:46:27.313Z,0
2017-11-08T04:47:27.648Z,0
2017-11-08T04:48:27.628Z,0
2017-11-08T04:49:27.619Z,0
2017-11-08T04:50:27.263Z,0
2017-11-08T04:51:27.237Z,0
2017-11-08T04:52:27.222Z,0
2017-11-08T04:53:27.206Z,0
2017-11-08T04:54:27.194Z,0
2017-11-08T04:55:27.520Z,0
2017-11-08T04:56:27.507Z,0
2017-11-08T04:57:27.500Z,0
2017-11-08T04:58:27.138Z,0
2017-11-08T04:59:27.123Z,0
2017-11-08T05:00:27.108Z,0
2017-11-08T05:01:27.096Z,0
2017-11-08T05:02:27.422Z,0
2017-11-08T05:03:27.068Z,0
2017-11-08T05:04:27.061Z,0
2017-11-08T05:05:27.040Z,0
2017-11-08T05:06:27.369Z,0
2017-11-08T05:07:27.355Z,0
2017-11-08T05:08:26.997Z,0
2017-11-08T05:09:27.330Z,0
2017-11-08T05:10:26.973Z,0
2017-11-08T05:11:27.297Z,0
2017-11-08T05:12:26.942Z,0
2017-11-08T05:13:27.263Z,0
2017-11-08T05:14:26.912Z,0
2017-11-08T05:15:27.233Z,0
2017-11-08T05:16:26.888Z,0
2017-11-08T05:17:27.207Z,0
2017-11-08T05:18:26.853Z,0
2017-11-08T05:19:26.840Z,0
2017-11-08T05:20:26.826Z,0
2017-11-08T05:21:26.817Z,0
2017-11-08T05:22:27.135Z,0
2017-11-08T05:23:26.784Z,0
2017-11-08T05:24:27.115Z,0
2017-11-08T05:25:26.752Z,0
2017-11-08T05:26:27.080Z,0
2017-11-08T05:27:26.725Z,0
2017-11-08T05:28:27.051Z,0
2017-11-08T05:29:26.695Z,0
2017-11-08T05:30:26.686Z,0
2017-11-08T05:31:27.007Z,0
2017-11-08T05:32:26.651Z,0
2017-11-08T05:33:26.980Z,0
2017-11-08T05:34:26.624Z,0
2017-11-08T05:35:26.609Z,0
2017-11-08T05:36:26.596Z,0
2017-11-08T05:37:26.598Z,0
2017-11-08T05:38:26.565Z,0
2017-11-08T05:39:26.553Z,0
2017-11-08T05:40:26.534Z,0
2017-11-08T05:41:26.521Z,0
2017-11-08T05:42:26.508Z,0
2017-11-08T05:43:26.495Z,0
2017-11-08T05:44:26.479Z,0
2017-11-08T05:45:26.472Z,0
2017-11-08T05:46:26.790Z,0
2017-11-08T05:47:26.434Z,0
2017-11-08T05:48:26.419Z,0
2017-11-08T05:49:26.746Z,0
2017-11-08T05:50:26.404Z,0
2017-11-08T05:51:26.376Z,0
2017-11-08T05:52:26.703Z,0
2017-11-08T05:53:26.687Z,0
2017-11-08T05:54:26.349Z,0
2017-11-08T05:55:26.323Z,0
2017-11-08T05:56:26.304Z,0
2017-11-08T05:57:26.302Z,0
2017-11-08T05:58:26.475Z,0
2017-11-08T05:59:26.259Z,0
2017-11-08T06:00:26.584Z,0
2017-11-08T06:01:26.575Z,0
2017-11-08T06:02:26.222Z,0
2017-11-08T06:03:26.550Z,0
2017-11-08T06:04:26.563Z,0
2017-11-08T06:05:26.542Z,0
2017-11-08T06:06:26.168Z,0
2017-11-08T06:07:26.488Z,0
2017-11-08T06:08:26.129Z,0
2017-11-08T06:09:26.112Z,0
2017-11-08T06:10:26.439Z,0
2017-11-08T06:11:26.429Z,0
2017-11-08T06:12:26.088Z,0
2017-11-08T06:13:26.054Z,0
2017-11-08T06:14:26.039Z,0
2017-11-08T06:15:26.036Z,0
2017-11-08T06:16:26.009Z,0
2017-11-08T06:17:26.004Z,0
2017-11-08T06:18:25.982Z,0
2017-11-08T06:19:26.308Z,0
2017-11-08T06:20:25.952Z,0
2017-11-08T06:21:25.945Z,0
2017-11-08T06:22:26.269Z,0
2017-11-08T06:23:26.246Z,0
2017-11-08T06:24:26.255Z,0
2017-11-08T06:25:25.879Z,0
2017-11-08T06:26:25.867Z,0
2017-11-08T06:27:25.852Z,0
2017-11-08T06:28:25.837Z,0
2017-11-08T06:29:25.823Z,0
2017-11-08T06:30:26.151Z,0
2017-11-08T06:31:26.133Z,0
2017-11-08T06:32:25.777Z,0
2017-11-08T06:33:25.765Z,0
2017-11-08T06:34:26.084Z,0
2017-11-08T06:35:26.090Z,0
2017-11-08T06:36:25.720Z,0
2017-11-08T06:37:25.716Z,0
2017-11-08T06:38:25.689Z,0
2017-11-08T06:39:25.675Z,0
2017-11-08T06:40:26.009Z,0
2017-11-08T06:41:25.992Z,0
2017-11-08T06:42:25.661Z,0
2017-11-08T06:43:25.616Z,0
2017-11-08T06:44:25.942Z,0
2017-11-08T06:45:25.588Z,0
2017-11-08T06:46:25.920Z,0
2017-11-08T06:47:25.562Z,0
2017-11-08T06:48:25.887Z,0
2017-11-08T06:49:25.531Z,0
2017-11-08T06:50:25.858Z,0
2017-11-08T06:51:25.849Z,0
2017-11-08T06:52:25.508Z,0
2017-11-08T06:53:25.478Z,0
2017-11-08T06:54:25.459Z,0
2017-11-08T06:55:25.465Z,0
2017-11-08T06:56:25.432Z,0
2017-11-08T06:57:25.765Z,0
2017-11-08T06:58:25.404Z,0
2017-11-08T06:59:25.407Z,0
2017-11-08T07:00:25.719Z,0
2017-11-08T07:01:25.701Z,0
2017-11-08T07:02:25.347Z,0
2017-11-08T07:03:25.336Z,0
2017-11-08T07:04:25.319Z,0
2017-11-08T07:05:25.644Z,0
2017-11-08T07:06:25.633Z,0
2017-11-08T07:07:25.615Z,0
2017-11-08T07:08:25.619Z,0
2017-11-08T07:09:25.249Z,0
2017-11-08T07:10:25.234Z,0
2017-11-08T07:11:25.220Z,0
2017-11-08T07:12:25.563Z,0
2017-11-08T07:13:25.532Z,0
2017-11-08T07:14:25.540Z,0
2017-11-08T07:15:25.171Z,0
2017-11-08T07:16:25.151Z,0
2017-11-08T07:17:25.148Z,0
2017-11-08T07:18:25.146Z,0
2017-11-08T07:19:25.109Z,0
2017-11-08T07:20:25.095Z,0
2017-11-08T07:21:25.083Z,0
2017-11-08T07:22:25.079Z,0
2017-11-08T07:23:25.106Z,0
2017-11-08T07:24:25.381Z,0
2017-11-08T07:25:25.372Z,0
2017-11-08T07:26:25.357Z,0
2017-11-08T07:27:25.339Z,0
2017-11-08T07:28:25.343Z,0
2017-11-08T07:29:24.970Z,0
2017-11-08T07:30:24.974Z,0
2017-11-08T07:31:24.944Z,0
2017-11-08T07:32:25.272Z,0
2017-11-08T07:33:24.935Z,0
2017-11-08T07:34:24.903Z,0
2017-11-08T07:35:24.891Z,0
2017-11-08T07:36:24.886Z,0
2017-11-08T07:37:25.209Z,0
2017-11-08T07:38:24.848Z,0
2017-11-08T07:39:24.863Z,0
2017-11-08T07:40:25.177Z,0
2017-11-08T07:41:24.816Z,0
2017-11-08T07:42:24.794Z,0
2017-11-08T07:43:24.782Z,0
2017-11-08T07:44:25.116Z,0
2017-11-08T07:45:24.754Z,0
2017-11-08T07:46:25.079Z,0
2017-11-08T07:47:24.726Z,0
2017-11-08T07:48:24.713Z,0
2017-11-08T07:49:25.042Z,0
2017-11-08T07:50:24.686Z,0
2017-11-08T07:51:25.011Z,0
2017-11-08T07:52:24.660Z,0
2017-11-08T07:53:24.645Z,0
2017-11-08T07:54:24.655Z,0
2017-11-08T07:55:24.620Z,0
2017-11-08T07:56:24.625Z,0
2017-11-08T07:57:24.594Z,0
2017-11-08T07:58:24.579Z,0
2017-11-08T07:59:24.574Z,0
2017-11-08T08:00:24.894Z,0
2017-11-08T08:01:24.542Z,0.19
2017-11-08T08:02:24.866Z,2.56
2017-11-08T08:03:24.853Z,4.46
2017-11-08T08:04:24.503Z,5.6
2017-11-08T08:05:24.489Z,6.74
2017-11-08T08:06:24.475Z,7.68
2017-11-08T08:07:24.463Z,8.64
2017-11-08T08:08:24.450Z,9.2
2017-11-08T08:09:24.436Z,8.35
2017-11-08T08:10:24.437Z,7.03
2017-11-08T08:11:24.409Z,5.88
2017-11-08T08:12:24.399Z,4.74
2017-11-08T08:13:24.454Z,3.99
2017-11-08T08:14:24.602Z,3.22
2017-11-08T08:15:24.803Z,3.32
2017-11-08T08:16:24.383Z,3.03
2017-11-08T08:17:24.697Z,2.56
2017-11-08T08:18:24.679Z,2.47
2017-11-08T08:19:24.655Z,3.13
2017-11-08T08:20:24.295Z,4.75
2017-11-08T08:21:24.643Z,6.08
2017-11-08T08:22:24.646Z,7.12
2017-11-08T08:23:24.257Z,8.17
2017-11-08T08:24:24.244Z,8.73
2017-11-08T08:25:24.575Z,9.78
2017-11-08T08:26:24.227Z,9.88
2017-11-08T08:27:24.210Z,9.21
2017-11-08T08:28:24.542Z,8.45
2017-11-08T08:29:24.183Z,8.36
2017-11-08T08:30:24.192Z,7.5
2017-11-08T08:31:24.157Z,7.5
2017-11-08T08:32:24.145Z,8.26
2017-11-08T08:33:24.472Z,9.12
2017-11-08T08:34:24.123Z,9.4
2017-11-08T08:35:24.109Z,11.21
2017-11-08T08:36:24.095Z,11.4
2017-11-08T08:37:24.084Z,11.11
2017-11-08T08:38:24.760Z,12.63
2017-11-08T08:39:24.072Z,12.92
2017-11-08T08:40:24.047Z,12.44
2017-11-08T08:41:24.035Z,12.16
2017-11-08T08:42:24.360Z,11.96
2017-11-08T08:43:24.356Z,12.26
2017-11-08T08:44:23.998Z,14.63
2017-11-08T08:45:23.985Z,15.68
2017-11-08T08:46:23.981Z,18.43
2017-11-08T08:47:23.964Z,22.05
2017-11-08T08:48:23.951Z,22.52
2017-11-08T08:49:24.299Z,22.42
2017-11-08T08:50:23.926Z,22.05
2017-11-08T08:51:23.985Z,22.52
2017-11-08T08:52:23.906Z,22.33
2017-11-08T08:53:24.277Z,22.24
2017-11-08T08:54:23.877Z,21.47
2017-11-08T08:55:23.866Z,20.14
2017-11-08T08:56:23.855Z,19.95
2017-11-08T08:57:23.842Z,18.72
2017-11-08T08:58:23.829Z,18.53
2017-11-08T08:59:23.820Z,17.48
2017-11-08T09:00:23.806Z,17.29
2017-11-08T09:01:23.794Z,17.86
2017-11-08T09:02:23.781Z,19.38
2017-11-08T09:03:23.774Z,19.76
2017-11-08T09:04:24.097Z,21.57
2017-11-08T09:05:24.084Z,21.19
2017-11-08T09:06:23.736Z,22.9
2017-11-08T09:07:24.065Z,23.47
2017-11-08T09:08:23.717Z,23.57
2017-11-08T09:09:24.042Z,23.28
2017-11-08T09:10:23.690Z,23.57
2017-11-08T09:11:23.677Z,24.42
2017-11-08T09:12:24.007Z,26.32
2017-11-08T09:13:23.658Z,25.85
2017-11-08T09:14:23.643Z,24.8
2017-11-08T09:15:23.632Z,25.75
2017-11-08T09:16:23.623Z,26.23
2017-11-08T09:17:23.608Z,26.42
2017-11-08T09:18:23.603Z,27.08
2017-11-08T09:19:23.592Z,27.46
2017-11-08T09:20:23.924Z,29.93
2017-11-08T09:21:23.583Z,30.6
2017-11-08T09:22:23.553Z,30.51
2017-11-08T09:23:23.881Z,30.88
2017-11-08T09:24:23.529Z,32.5
2017-11-08T09:25:23.866Z,35.35
2017-11-08T09:26:23.512Z,36.58
2017-11-08T09:27:23.842Z,37.44
2017-11-08T09:28:23.482Z,36.21
2017-11-08T09:29:23.813Z,35.54
2017-11-08T09:30:23.460Z,36.49
2017-11-08T09:31:23.462Z,36.21
2017-11-08T09:32:23.788Z,35.44
2017-11-08T09:33:23.426Z,34.3
2017-11-08T09:34:23.424Z,33.17
2017-11-08T09:35:23.754Z,30.88
2017-11-08T09:36:23.498Z,31.55
2017-11-08T09:37:23.395Z,34.4
2017-11-08T09:38:23.380Z,39.53
2017-11-08T09:39:23.773Z,45.23
2017-11-08T09:40:23.348Z,44
2017-11-08T09:41:23.676Z,46
2017-11-08T09:42:23.327Z,46.19
2017-11-08T09:43:23.399Z,44.85
2017-11-08T09:44:23.322Z,42.47
2017-11-08T09:45:23.314Z,38.87
2017-11-08T09:46:23.277Z,36.4
2017-11-08T09:47:23.619Z,39.34
2017-11-08T09:48:23.305Z,40.77
2017-11-08T09:49:23.345Z,40.48
2017-11-08T09:50:23.311Z,41.43
2017-11-08T09:51:23.564Z,40.29
2017-11-08T09:52:23.223Z,39.91
2017-11-08T09:53:23.543Z,39.06
2017-11-08T09:54:23.185Z,37.82
2017-11-08T09:55:23.545Z,36.49
2017-11-08T09:56:23.513Z,36.4
2017-11-08T09:57:23.492Z,36.3
2017-11-08T09:58:23.140Z,35.54
2017-11-08T09:59:23.469Z,35.92
2017-11-08T10:00:23.119Z,36.49
2017-11-08T10:01:23.460Z,36.58
2017-11-08T10:02:23.110Z,36.68
2017-11-08T10:03:23.083Z,37.35
2017-11-08T10:04:23.411Z,35.92
2017-11-08T10:05:23.431Z,34.78
2017-11-08T10:06:23.429Z,34.78
2017-11-08T10:07:23.038Z,34.21
2017-11-08T10:08:23.081Z,34.97
2017-11-08T10:09:23.059Z,35.63
2017-11-08T10:10:23.340Z,36.49
2017-11-08T10:11:22.992Z,35.54
2017-11-08T10:12:22.980Z,32.88
2017-11-08T10:13:23.373Z,29.74
2017-11-08T10:14:22.970Z,28.31
2017-11-08T10:15:23.322Z,28.03
2017-11-08T10:16:22.960Z,31.74
2017-11-08T10:17:23.270Z,35.16
2017-11-08T10:18:22.911Z,36.11
2017-11-08T10:19:23.239Z,36.87
2017-11-08T10:20:22.886Z,37.54
2017-11-08T10:21:23.225Z,38.29
2017-11-08T10:22:22.863Z,38.2
2017-11-08T10:23:22.862Z,37.25
2017-11-08T10:24:22.913Z,36.49
2017-11-08T10:25:22.846Z,35.35
2017-11-08T10:26:23.158Z,35.35
2017-11-08T10:27:22.807Z,36.02
2017-11-08T10:28:22.815Z,36.58
2017-11-08T10:29:22.789Z,36.77
2017-11-08T10:30:23.109Z,35.83
2017-11-08T10:31:23.106Z,34.11
2017-11-08T10:32:22.776Z,32.21
2017-11-08T10:33:23.085Z,30.79
2017-11-08T10:34:22.731Z,31.84
2017-11-08T10:35:22.715Z,32.21
2017-11-08T10:36:22.703Z,32.4
2017-11-08T10:37:22.693Z,32.21
2017-11-08T10:38:22.681Z,33.26
2017-11-08T10:39:22.668Z,34.3
2017-11-08T10:40:22.658Z,35.63
2017-11-08T10:41:23.007Z,36.58
2017-11-08T10:42:22.597Z,35.25
2017-11-08T10:43:22.659Z,34.97
2017-11-08T10:44:22.577Z,35.73
2017-11-08T10:45:22.926Z,36.4
2017-11-08T10:46:22.551Z,37.73
2017-11-08T10:47:22.889Z,38.48
2017-11-08T10:48:22.529Z,38.87
2017-11-08T10:49:22.518Z,39.53
2017-11-08T10:50:22.848Z,39.25
2017-11-08T10:51:22.494Z,38.48
2017-11-08T10:52:22.838Z,37.35
2017-11-08T10:53:22.813Z,36.68
2017-11-08T10:54:22.815Z,39.25
2017-11-08T10:55:22.448Z,40.48
2017-11-08T10:56:22.774Z,40.86
2017-11-08T10:57:22.428Z,41.05
2017-11-08T10:58:22.417Z,41.05
2017-11-08T10:59:22.753Z,40.2
2017-11-08T11:00:22.388Z,39.25
2017-11-08T11:01:22.719Z,39.25
2017-11-08T11:02:22.410Z,39.25
2017-11-08T11:03:22.703Z,39.25
2017-11-08T11:04:22.345Z,39.43
2017-11-08T11:05:22.333Z,40.86
2017-11-08T11:06:22.679Z,40.95
2017-11-08T11:07:22.311Z,40.39
2017-11-08T11:08:22.644Z,40.95
2017-11-08T11:09:22.287Z,42.69
2017-11-08T11:10:22.619Z,43.35
2017-11-08T11:11:22.268Z,43.93
2017-11-08T11:12:22.611Z,43.33
2017-11-08T11:13:22.243Z,42
2017-11-08T11:14:22.574Z,42.1
2017-11-08T11:15:22.563Z,43.54
2017-11-08T11:16:22.215Z,45.14
2017-11-08T11:17:22.561Z,44.09
2017-11-08T11:18:22.207Z,43.33
2017-11-08T11:19:22.520Z,43.33
2017-11-08T11:20:22.172Z,42
2017-11-08T11:21:22.154Z,42.38
2017-11-08T11:22:22.146Z,43.33
2017-11-08T11:23:22.134Z,43.54
2017-11-08T11:24:22.465Z,43.54
2017-11-08T11:25:22.451Z,44.95
2017-11-08T11:26:22.101Z,44.97
2017-11-08T11:27:22.087Z,44.02
2017-11-08T11:28:22.081Z,44.31
2017-11-08T11:29:22.073Z,44.85
2017-11-08T11:30:22.053Z,42.4
2017-11-08T11:31:22.053Z,41.26
2017-11-08T11:32:22.036Z,43.52
2017-11-08T11:33:22.022Z,43.33
2017-11-08T11:34:22.354Z,43.33
2017-11-08T11:35:22.363Z,41.72
2017-11-08T11:36:22.419Z,41.14
2017-11-08T11:37:22.083Z,40.2
2017-11-08T11:38:22.353Z,39.25
2017-11-08T11:39:22.313Z,37.82
2017-11-08T11:40:22.309Z,36.3
2017-11-08T11:41:21.957Z,36.77
2017-11-08T11:42:22.267Z,37.54
2017-11-08T11:43:21.918Z,37.63
2017-11-08T11:44:21.901Z,37.63
2017-11-08T11:45:21.890Z,37.54
2017-11-08T11:46:21.909Z,37.54
2017-11-08T11:47:22.220Z,38.01
2017-11-08T11:48:22.229Z,38.58
2017-11-08T11:49:22.202Z,40.2
2017-11-08T11:50:21.833Z,40.2
2017-11-08T11:51:22.180Z,39.15
2017-11-08T11:52:21.809Z,37.92
2017-11-08T11:53:22.161Z,36.87
2017-11-08T11:54:21.790Z,36.49
2017-11-08T11:55:22.120Z,36.4
2017-11-08T11:56:21.764Z,38.58
2017-11-08T11:57:21.770Z,39.34
2017-11-08T11:58:21.742Z,39.15
2017-11-08T11:59:21.732Z,38.1
2017-11-08T12:00:22.069Z,36.96
2017-11-08T12:01:22.049Z,35.44
2017-11-08T12:02:21.696Z,34.11
2017-11-08T12:03:22.037Z,33.54
2017-11-08T12:04:22.015Z,32.88
2017-11-08T12:05:21.663Z,33.07
2017-11-08T12:06:22.003Z,32.5
2017-11-08T12:07:22.006Z,33.07
2017-11-08T12:08:21.638Z,32.12
2017-11-08T12:09:21.616Z,31.64
2017-11-08T12:10:21.615Z,31.74
2017-11-08T12:11:21.942Z,32.03
2017-11-08T12:12:21.593Z,33.53
2017-11-08T12:13:21.915Z,33.72
2017-11-08T12:14:21.559Z,33.15
2017-11-08T12:15:21.553Z,32.77
2017-11-08T12:16:21.537Z,32.39
2017-11-08T12:17:21.524Z,31.44
2017-11-08T12:18:21.514Z,29.92
2017-11-08T12:19:21.910Z,29.06
2017-11-08T12:20:21.872Z,28.49
2017-11-08T12:21:21.487Z,29.82
2017-11-08T12:22:21.567Z,28.79
2017-11-08T12:23:21.851Z,27.37
2017-11-08T12:24:21.789Z,27.27
2017-11-08T12:25:21.771Z,27.75
2017-11-08T12:26:21.773Z,28.51
2017-11-08T12:27:21.753Z,28.6
2017-11-08T12:28:21.736Z,28.79
2017-11-08T12:29:21.388Z,28.41
2017-11-08T12:30:21.715Z,28.31
2017-11-08T12:31:21.705Z,27.18
2017-11-08T12:32:21.689Z,24.99
2017-11-08T12:33:21.704Z,25.37
2017-11-08T12:34:21.688Z,24.8
2017-11-08T12:35:21.655Z,25.46
2017-11-08T12:36:21.300Z,27.65
2017-11-08T12:37:21.634Z,29.36
2017-11-08T12:38:21.275Z,30.88
2017-11-08T12:39:21.266Z,32.21
2017-11-08T12:40:21.599Z,32.59
2017-11-08T12:41:21.595Z,32.97
2017-11-08T12:42:21.233Z,32.88
2017-11-08T12:43:21.218Z,33.54
2017-11-08T12:44:21.211Z,33.73
2017-11-08T12:45:21.537Z,33.54
2017-11-08T12:46:21.191Z,34.02
2017-11-08T12:47:21.185Z,35.06
2017-11-08T12:48:21.505Z,36.02
2017-11-08T12:49:21.489Z,36.02
2017-11-08T12:50:21.145Z,36.02
2017-11-08T12:51:21.125Z,36.21
2017-11-08T12:52:21.115Z,35.44
2017-11-08T12:53:21.445Z,34.3
2017-11-08T12:54:21.094Z,32.21
2017-11-08T12:55:21.078Z,30.51
2017-11-08T12:56:21.083Z,29.64
2017-11-08T12:57:21.417Z,29.64
2017-11-08T12:58:21.399Z,31.07
2017-11-08T12:59:21.375Z,31.36
2017-11-08T13:00:21.023Z,30.88
2017-11-08T13:01:21.011Z,31.84
2017-11-08T13:02:21.360Z,34.3
2017-11-08T13:03:21.340Z,34.78
2017-11-08T13:04:20.983Z,34.69
2017-11-08T13:05:21.307Z,35.16
2017-11-08T13:06:20.954Z,33.92
2017-11-08T13:07:21.285Z,33.45
2017-11-08T13:08:21.284Z,31.26
2017-11-08T13:09:21.261Z,30.88
2017-11-08T13:10:20.908Z,30.51
2017-11-08T13:11:21.243Z,29.74
2017-11-08T13:12:20.883Z,29.55
2017-11-08T13:13:21.216Z,29.84
2017-11-08T13:14:20.862Z,28.51
2017-11-08T13:15:20.860Z,28.13
2017-11-08T13:16:20.860Z,27.94
2017-11-08T13:17:21.177Z,29.55
2017-11-08T13:18:20.817Z,29.84
2017-11-08T13:19:21.144Z,29.74
2017-11-08T13:20:21.135Z,28.6
2017-11-08T13:21:21.138Z,28.98
2017-11-08T13:22:21.134Z,28.31
2017-11-08T13:23:20.755Z,28.03
2017-11-08T13:24:20.743Z,27.56
2017-11-08T13:25:20.747Z,27.94
2017-11-08T13:26:20.721Z,27.75
2017-11-08T13:27:21.051Z,26.98
2017-11-08T13:28:21.045Z,25.85
2017-11-08T13:29:20.688Z,25.85
2017-11-08T13:30:20.686Z,25.65
2017-11-08T13:31:20.664Z,26.61
2017-11-08T13:32:20.994Z,27.75
2017-11-08T13:33:20.983Z,28.6
2017-11-08T13:34:20.981Z,28.79
2017-11-08T13:35:20.957Z,28.31
2017-11-08T13:36:20.945Z,27.84
2017-11-08T13:37:20.936Z,27.46
2017-11-08T13:38:20.924Z,26.61
2017-11-08T13:39:20.588Z,25.85
2017-11-08T13:40:20.911Z,26.13
2017-11-08T13:41:20.911Z,25.94
2017-11-08T13:42:20.878Z,26.04
2017-11-08T13:43:20.861Z,25.27
2017-11-08T13:44:20.525Z,24.04
2017-11-08T13:45:20.842Z,24.13
2017-11-08T13:46:20.487Z,24.13
2017-11-08T13:47:20.475Z,23.55
2017-11-08T13:48:20.482Z,22.41
2017-11-08T13:49:20.450Z,22.7
2017-11-08T13:50:20.440Z,22.22
2017-11-08T13:51:20.832Z,21.56
2017-11-08T13:52:20.417Z,20.7
2017-11-08T13:53:20.409Z,20.23
2017-11-08T13:54:20.759Z,20.51
2017-11-08T13:55:20.382Z,19.47
2017-11-08T13:56:20.376Z,19.56
2017-11-08T13:57:20.356Z,19.76